Time;durP1;ratioP1;P1;durP2;ratioP2;P2;SDS_P1;SDS_P2;PMS_P1;PMS_P2;Temp;Humidity;BMP_temperature;BMP_pressure;BME280_temperature;BME280_humidity;BME280_pressure;Samples;Min_cycle;Max_cycle;Signal;HPM_P1;HPM_P2
2022/11/28 00:01:58;;;;;;;21.80;14.00;;;;;;;;;;5054205;28;20513;-73
2022/11/28 00:04:24;;;;;;;23.35;14.55;;;;;;;;;;5055422;28;20926;-72
2022/11/28 00:06:50;;;;;;;20.63;14.13;;;;;;;;;;5040023;28;20930;-73
2022/11/28 00:09:17;;;;;;;21.10;14.32;;;;;;;;;;5054968;28;20426;-74
2022/11/28 00:11:45;;;;;;;23.08;14.27;;;;;;;;;;5055118;28;20547;-73
2022/11/28 00:14:11;;;;;;;21.90;14.82;;;;;;;;;;5045706;28;20762;-73
2022/11/28 00:16:37;;;;;;;21.55;14.63;;;;;;;;;;5040219;28;20786;-73
2022/11/28 00:19:04;;;;;;;22.77;15.13;;;;;;;;;;5038885;28;20408;-73
2022/11/28 00:21:30;;;;;;;23.42;16.02;;;;;;;;;;5056237;28;20415;-73
2022/11/28 00:23:57;;;;;;;19.85;15.20;;;;;;;;;;5056816;28;20404;-73
2022/11/28 00:26:24;;;;;;;22.70;15.43;;;;;;;;;;5055268;28;20427;-73
2022/11/28 00:28:51;;;;;;;21.80;14.82;;;;;;;;;;5045561;28;20508;-73
2022/11/28 00:31:19;;;;;;;19.52;13.93;;;;;;;;;;5030019;28;20427;-72
2022/11/28 00:33:46;;;;;;;21.80;14.77;;;;;;;;;;5034994;28;20425;-72
2022/11/28 00:36:12;;;;;;;24.27;14.48;;;;;;;;;;5054570;28;20477;-73
2022/11/28 00:38:38;;;;;;;23.23;14.68;;;;;;;;;;5038877;28;20432;-73
2022/11/28 00:41:06;;;;;;;25.15;14.88;;;;;;;;;;5049727;28;20494;-73
2022/11/28 00:43:33;;;;;;;21.80;14.02;;;;;;;;;;5035795;28;20446;-73
2022/11/28 00:45:59;;;;;;;19.63;14.20;;;;;;;;;;5038199;28;20427;-73
2022/11/28 00:48:25;;;;;;;22.23;14.07;;;;;;;;;;5039169;28;20759;-72
2022/11/28 00:50:52;;;;;;;20.85;13.95;;;;;;;;;;5039149;28;20424;-73
2022/11/28 00:53:18;;;;;;;19.83;14.25;;;;;;;;;;5054085;28;20415;-73
2022/11/28 00:55:44;;;;;;;17.65;13.15;;;;;;;;;;5055220;28;20416;-73
2022/11/28 00:58:10;;;;;;;20.30;13.80;;;;;;;;;;5051320;28;20430;-73
2022/11/28 01:00:36;;;;;;;19.50;13.87;;;;;;;;;;5038115;28;20545;-73
2022/11/28 01:03:02;;;;;;;19.23;13.35;;;;;;;;;;5053216;28;20424;-80
2022/11/28 01:05:28;;;;;;;18.95;14.43;;;;;;;;;;5038337;28;20430;-80
2022/11/28 01:07:54;;;;;;;28.70;15.17;;;;;;;;;;5035368;28;20413;-80
2022/11/28 01:10:20;;;;;;;84.53;17.98;;;;;;;;;;5029111;28;20431;-79
2022/11/28 01:12:46;;;;;;;20.05;14.10;;;;;;;;;;5054597;28;20907;-80
2022/11/28 01:15:13;;;;;;;20.25;13.75;;;;;;;;;;5055220;28;20420;-80
2022/11/28 01:17:39;;;;;;;20.80;13.93;;;;;;;;;;5038026;28;20423;-74
2022/11/28 01:20:06;;;;;;;20.83;14.00;;;;;;;;;;5054384;28;20926;-74
2022/11/28 01:22:33;;;;;;;19.85;13.43;;;;;;;;;;5055083;28;20424;-74
2022/11/28 01:24:59;;;;;;;25.47;13.27;;;;;;;;;;5036725;28;20455;-74
2022/11/28 01:27:25;;;;;;;20.30;13.63;;;;;;;;;;5048781;28;20500;-74
2022/11/28 01:29:51;;;;;;;19.48;12.75;;;;;;;;;;5054266;28;20428;-74
2022/11/28 01:32:18;;;;;;;19.15;12.57;;;;;;;;;;5054667;28;20412;-74
2022/11/28 01:34:44;;;;;;;19.08;12.90;;;;;;;;;;5049468;28;20423;-74
2022/11/28 01:37:10;;;;;;;20.10;13.07;;;;;;;;;;5051400;28;20419;-72
2022/11/28 01:39:37;;;;;;;23.25;13.65;;;;;;;;;;5052273;28;20484;-73
2022/11/28 01:42:03;;;;;;;23.23;14.02;;;;;;;;;;5053390;28;20423;-73
2022/11/28 01:44:29;;;;;;;21.20;14.10;;;;;;;;;;5054423;28;20439;-73
2022/11/28 01:46:55;;;;;;;23.70;14.97;;;;;;;;;;5055392;28;20492;-73
2022/11/28 01:49:41;;;;;;;24.73;16.30;;;;;;;;;;5037160;28;20419;-73
2022/11/28 01:52:11;;;;;;;64.00;19.43;;;;;;;;;;5054282;28;20502;-73
2022/11/28 01:54:39;;;;;;;27.63;18.02;;;;;;;;;;5036777;28;20423;-73
2022/11/28 01:57:06;;;;;;;27.95;18.45;;;;;;;;;;5052054;28;20505;-73
2022/11/28 01:59:34;;;;;;;31.05;19.15;;;;;;;;;;5035329;28;20456;-74
2022/11/28 02:02:03;;;;;;;33.45;20.70;;;;;;;;;;5053939;28;20430;-74
2022/11/28 02:04:29;;;;;;;33.72;20.75;;;;;;;;;;5051807;28;20424;-74
2022/11/28 02:06:55;;;;;;;104.22;25.42;;;;;;;;;;5052604;28;20499;-73
2022/11/28 02:09:21;;;;;;;37.65;23.35;;;;;;;;;;5035841;28;20424;-73
2022/11/28 02:11:53;;;;;;;41.65;24.05;;;;;;;;;;5036788;28;20503;-74
2022/11/28 02:14:31;;;;;;;38.97;24.50;;;;;;;;;;5036934;28;20767;-74
2022/11/28 02:17:23;;;;;;;41.80;24.58;;;6.30;99.90;;;;;;5037373;28;20426;-74
2022/11/28 02:19:55;;;;;;;42.67;26.33;;;;;;;;;;5049050;28;20416;-74
2022/11/28 02:22:33;;;;;;;43.05;27.10;;;;;;;;;;5046288;28;20477;-74
2022/11/28 02:24:59;;;;;;;43.58;27.60;;;;;;;;;;5035974;28;20506;-74
2022/11/28 02:27:29;;;;;;;47.22;28.38;;;;;;;;;;5036048;28;20442;-74
2022/11/28 02:29:58;;;;;;;45.47;27.70;;;;;;;;;;5037539;28;20419;-74
2022/11/28 02:32:29;;;;;;;48.58;29.08;;;;;;;;;;5033526;28;20426;-74
2022/11/28 02:34:58;;;;;;;46.05;28.38;;;;;;;;;;5033616;28;20508;-74
2022/11/28 02:37:31;;;;;;;44.80;28.02;;;;;;;;;;5051863;28;20764;-74
2022/11/28 02:39:57;;;;;;;46.80;28.83;;;;;;;;;;5052674;28;20495;-73
2022/11/28 02:42:36;;;;;;;45.40;28.40;;;;;;;;;;5030518;28;20443;-73
2022/11/28 02:45:05;;;;;;;44.90;28.27;;;;;;;;;;5034087;28;20440;-73
2022/11/28 02:47:39;;;;;;;46.63;28.77;;;;;;;;;;5051050;28;20464;-73
2022/11/28 02:50:11;;;;;;;49.58;28.42;;;;;;;;;;5052627;28;20423;-74
2022/11/28 02:52:42;;;;;;;43.50;26.30;;;;;;;;;;5035319;28;21212;-73
2022/11/28 02:55:08;;;;;;;44.40;26.50;;;;;;;;;;5053814;28;20423;-74
2022/11/28 02:57:36;;;;;;;40.28;25.38;;;;;;;;;;5035624;28;20980;-73
2022/11/28 03:00:02;;;;;;;42.05;25.38;;;;;;;;;;5052065;28;20423;-74
2022/11/28 03:02:29;;;;;;;42.22;25.30;;;;;;;;;;5050587;28;20834;-73
2022/11/28 03:05:05;;;;;;;42.40;26.15;;;;;;;;;;5042634;28;20429;-73
2022/11/28 03:07:50;;;;;;;42.00;25.83;;;;;;;;;;5053194;28;20423;-73
2022/11/28 03:10:23;;;;;;;86.53;30.10;;;;;;;;;;5052803;28;20416;-74
2022/11/28 03:12:59;;;;;;;48.00;28.90;;;;;;;;;;5052137;28;20419;-73
2022/11/28 03:15:36;;;;;;;44.35;27.73;;;;;;;;;;5047612;28;20506;-73
2022/11/28 03:18:08;;;;;;;43.60;27.45;;;;;;;;;;5052544;28;20423;-73
2022/11/28 03:20:45;;;;;;;45.57;29.10;;;;;;;;;;5050938;28;20416;-73
2022/11/28 03:23:11;;;;;;;46.10;28.60;;;;;;;;;;5036747;28;20403;-73
2022/11/28 03:25:40;;;;;;;50.85;30.80;;;;;;;;;;5028201;28;20840;-73
2022/11/28 03:28:10;;;;;;;51.17;31.35;;;;;;;;;;5044550;28;20428;-73
2022/11/28 03:30:45;;;;;;;49.43;31.00;;;;;;;;;;5052069;28;20431;-73
2022/11/28 03:33:12;;;;;;;53.17;32.08;;;;;;;;;;5020035;28;20449;-73
2022/11/28 03:35:42;;;;;;;51.38;31.25;;;;;;;;;;5052116;28;20431;-73
2022/11/28 03:38:12;;;;;;;51.88;31.88;;;;;;;;;;5052459;28;20522;-73
2022/11/28 03:40:44;;;;;;;52.35;32.72;;;;;;;;;;5052716;28;20404;-73
2022/11/28 03:43:12;;;;;;;56.58;33.70;;;;;;;;;;5033556;28;20397;-73
2022/11/28 03:45:40;;;;;;;54.42;33.17;;;;;;;;;;5041435;28;20760;-73
2022/11/28 03:48:13;;;;;;;54.80;33.65;;;;;;;;;;5052523;28;20416;-73
2022/11/28 03:50:41;;;;;;;77.93;35.50;;;;;;;;;;5034855;28;20431;-73
2022/11/28 03:53:19;;;;;;;61.10;34.72;;;;;;;;;;5050973;28;20472;-73
2022/11/28 03:55:55;;;;;;;60.78;34.65;;;;;;;;;;5042035;28;20438;-73
2022/11/28 03:58:30;;;;;;;59.88;34.35;;;;;;;;;;5052131;28;20415;-74
2022/11/28 04:01:00;;;;;;;55.22;34.30;;;;;;;;;;5039645;28;20500;-73
2022/11/28 04:03:37;;;;;;;57.00;34.87;;;;;;;;;;5052022;28;20503;-73
2022/11/28 04:06:23;;;;;;;63.60;35.50;;;;;;;;;;5035353;28;20436;-72
2022/11/28 04:08:54;;;;;;;57.33;34.83;;;;;;;;;;5034595;28;20424;-73
2022/11/28 04:11:22;;;;;;;62.92;34.97;;;;;;;;;;5016776;28;20410;-73
2022/11/28 04:13:51;;;;;;;56.60;35.00;;;;;;;;;;5052446;28;20427;-74
2022/11/28 04:16:21;;;;;;;56.20;33.92;;;;;;;;;;5051803;28;20427;-74
2022/11/28 04:18:47;;;;;;;56.78;34.85;;;;;;;;;;5053266;28;20786;-73
2022/11/28 04:21:13;;;;;;;56.15;32.55;;;;;;;;;;5045545;28;20464;-74
2022/11/28 04:23:42;;;;;;;52.33;32.80;;;;;;;;;;5035189;28;20423;-73
2022/11/28 04:26:16;;;;;;;53.42;32.55;;;;;;;;;;5049325;28;20566;-73
2022/11/28 04:28:44;;;;;;;50.90;31.88;;;;;;;;;;5044484;28;20926;-73
2022/11/28 04:31:10;;;;;;;49.78;31.75;;;;;;;;;;5035434;28;20509;-73
2022/11/28 04:33:38;;;;;;;53.10;32.17;;;;;;;;;;5055536;28;20419;-73
2022/11/28 04:36:04;;;;;;;51.92;32.05;;;;;;;;;;5055411;28;20428;-73
2022/11/28 04:38:31;;;;;;;57.83;32.97;;;;;;;;;;5055279;28;20472;-74
2022/11/28 04:41:16;;;;;;;60.78;33.35;;;;;;;;;;5054906;28;20423;-74
2022/11/28 04:43:56;;;;;;;54.67;31.80;;;;;;;;;;5039166;28;20420;-74
2022/11/28 04:46:26;;;;;;;44.13;29.88;;;;;;;;;;5054013;28;20439;-74
2022/11/28 04:48:52;;;;;;;48.95;30.05;;;;;;;;;;5020162;28;20416;-74
2022/11/28 04:51:20;;;;;;;47.22;30.60;;;;;;;;;;5025718;28;20464;-74
2022/11/28 04:53:49;;;;;;;47.88;30.15;;;;;;;;;;5038652;28;20415;-74
2022/11/28 04:56:25;;;;;;;176.83;39.87;;;;;;;;;;5055277;28;20424;-74
2022/11/28 04:58:51;;;;;;;49.50;29.87;;;;;;;;;;5056199;28;20452;-75
2022/11/28 05:01:21;;;;;;;47.53;30.40;;;;;;;;;;5029727;28;20427;-74
2022/11/28 05:03:48;;;;;;;45.92;30.23;;;;;;;;;;5036027;28;20441;-74
2022/11/28 05:06:24;;;;;;;50.40;30.45;;;;;;;;;;5026061;28;20435;-74
2022/11/28 05:08:53;;;;;;;48.72;30.83;;;;;;;;;;5055962;28;20407;-74
2022/11/28 05:11:19;;;;;;;47.73;29.70;;;;;;;;;;5054831;28;20408;-74
2022/11/28 05:13:45;;;;;;;47.70;29.55;;;;;;;;;;5052228;28;20412;-73
2022/11/28 05:16:11;;;;;;;73.22;30.45;;;;;;;;;;5053855;28;20987;-73
2022/11/28 05:18:38;;;;;;;44.17;27.83;;;;;;;;;;5055709;28;20478;-73
2022/11/28 05:21:08;;;;;;;42.20;27.83;;;;;;;;;;5053609;28;20942;-73
2022/11/28 05:23:41;;;;;;;41.10;27.25;;;;;;;;;;5047081;28;20424;-74
2022/11/28 05:26:10;;;;;;;41.38;25.95;;;;;;;;;;5037616;28;20494;-74
2022/11/28 05:28:36;;;;;;;43.05;26.35;;;;;;;;;;5052755;28;20478;-74
2022/11/28 05:31:03;;;;;;;37.88;25.05;;;;;;;;;;5036438;28;20422;-73
2022/11/28 05:33:29;;;;;;;37.33;24.25;;;;;;;;;;5053935;28;20411;-73
2022/11/28 05:35:56;;;;;;;38.03;24.55;;;;;;;;;;5054681;28;20424;-74
2022/11/28 05:38:25;;;;;;;36.28;24.35;;;;;;;;;;5053205;28;20431;-74
2022/11/28 05:40:51;;;;;;;34.17;23.27;;;;;;;;;;5044959;28;20425;-75
2022/11/28 05:43:17;;;;;;;42.55;24.48;;;;;;;;;;5034149;28;21015;-75
2022/11/28 05:45:44;;;;;;;36.10;23.48;;;;;;;;;;5029158;28;20457;-75
2022/11/28 05:48:10;;;;;;;34.22;22.40;;;;;;;;;;5008511;28;20431;-74
2022/11/28 05:50:40;;;;;;;34.20;22.90;;;;;;;;;;5038363;28;20416;-74
2022/11/28 05:53:06;;;;;;;36.08;22.50;;;;;;;;;;5051644;28;20423;-75
2022/11/28 05:55:32;;;;;;;35.55;22.55;;;;;;;;;;5053925;28;20419;-75
2022/11/28 05:57:58;;;;;;;35.10;22.73;;;;;;;;;;5036948;28;20451;-75
2022/11/28 06:00:24;;;;;;;33.67;22.60;;;;;;;;;;5037618;28;20432;-74
2022/11/28 06:02:50;;;;;;;34.83;22.77;;;;;;;;;;5052764;28;20431;-75
2022/11/28 06:05:16;;;;;;;34.95;22.48;;;;;;;;;;5054637;28;20943;-74
2022/11/28 06:07:43;;;;;;;48.83;25.50;;;;;;;;;;5052173;28;20420;-74
2022/11/28 06:10:09;;;;;;;32.80;21.85;;;;;;;;;;5053517;28;20427;-74
2022/11/28 06:12:35;;;;;;;35.72;23.20;;;;;;;;;;5038200;28;20404;-75
2022/11/28 06:15:01;;;;;;;34.25;21.73;;;;;;;;;;5052211;28;20510;-75
2022/11/28 06:17:27;;;;;;;56.08;22.52;;;;;;;;;;5038201;28;20407;-75
2022/11/28 06:19:53;;;;;;;60.63;23.63;;;;;;;;;;5052271;28;20506;-75
2022/11/28 06:22:21;;;;;;;74.63;24.27;;;;;;;;;;5071130;28;20406;-75
2022/11/28 06:24:47;;;;;;;48.08;25.35;;;;;;;;;;5053574;28;20420;-74
2022/11/28 06:27:13;;;;;;;140.02;31.75;;;;;;;;;;5036065;28;20423;-74
2022/11/28 06:29:39;;;;;;;222.85;36.60;;;;;;;;;;5035917;28;20423;-74
2022/11/28 06:32:05;;;;;;;220.10;33.78;;;;;;;;;;5049398;28;20431;-74
2022/11/28 06:34:31;;;;;;;38.95;23.55;;;;;;;;;;5049176;28;20926;-74
2022/11/28 06:36:57;;;;;;;117.33;29.70;;;;;;;;;;5051848;28;20420;-75
2022/11/28 06:39:23;;;;;;;37.60;22.98;;;;;;;;;;5017067;28;20908;-74
2022/11/28 06:41:49;;;;;;;260.40;39.67;;;;;;;;;;5051043;28;20419;-75
2022/11/28 06:44:16;;;;;;;95.47;25.63;;;;;;;;;;5051511;28;20430;-74
2022/11/28 06:46:43;;;;;;;83.13;26.85;;;;;;;;;;5049499;28;20510;-75
2022/11/28 06:49:12;;;;;;;67.23;24.00;;;;;;;;;;5046055;28;20517;-74
2022/11/28 06:51:39;;;;;;;40.03;22.77;;;;;;;;;;5043572;28;20465;-74
2022/11/28 06:54:05;;;;;;;41.80;25.83;;;;;;;;;;5051902;28;20427;-74
2022/11/28 06:56:31;;;;;;;39.28;22.40;;;;;;;;;;5033057;28;20920;-76
2022/11/28 06:58:58;;;;;;;38.58;22.75;;;;;;;;;;5009477;28;20427;-76
2022/11/28 07:01:25;;;;;;;38.05;22.45;;;;;;;;;;5031259;28;20968;-76
2022/11/28 07:03:53;;;;;;;291.33;48.53;;;;;;;;;;5052066;28;20950;-75
2022/11/28 07:06:20;;;;;;;44.75;22.90;;;;;;;;;;5051360;28;20419;-75
2022/11/28 07:08:46;;;;;;;39.30;22.55;;;;;;;;;;5052446;28;20427;-76
2022/11/28 07:11:23;;;;;;;35.58;21.58;;;;;;;;;;5036167;28;20787;-75
2022/11/28 07:13:49;;;;;;;33.60;21.38;;;;;;;;;;5050071;28;20415;-76
2022/11/28 07:16:20;;;;;;;31.52;20.13;;;;;;;;;;5051473;28;20741;-75
2022/11/28 07:18:46;;;;;;;35.80;21.00;;;;;;;;;;5047089;28;20431;-75
2022/11/28 07:21:13;;;;;;;36.20;21.20;;;;;;;;;;5037748;28;20787;-76
2022/11/28 07:23:42;;;;;;;32.92;20.77;;;;;;;;;;5059528;28;20834;-76
2022/11/28 07:26:09;;;;;;;32.33;19.80;;;;;;;;;;5030002;28;20426;-75
2022/11/28 07:28:35;;;;;;;31.03;19.63;;;;;;;;;;5025827;28;20422;-75
2022/11/28 07:31:06;;;;;;;30.45;19.55;;;;;;;;;;5041867;28;20419;-75
2022/11/28 07:33:33;;;;;;;32.40;20.23;;;;;;;;;;5030784;28;20438;-75
2022/11/28 07:36:00;;;;;;;31.95;19.17;;;;;;;;;;5042666;28;20426;-75
2022/11/28 07:38:26;;;;;;;31.13;19.63;;;;;;;;;;4999338;28;20423;-74
2022/11/28 07:40:52;;;;;;;33.30;20.13;;;;;;;;;;5030735;28;20490;-73
2022/11/28 07:43:18;;;;;;;32.13;19.55;;;;;;;;;;5039422;28;20445;-74
2022/11/28 07:45:44;;;;;;;33.05;20.65;;;;;;;;;;5020275;28;20925;-74
2022/11/28 07:48:10;;;;;;;32.45;19.75;;;;;;;;;;5031577;28;20421;-74
2022/11/28 07:50:39;;;;;;;31.63;19.38;;;;;;;;;;5015043;28;20466;-74
2022/11/28 07:53:05;;;;;;;32.33;20.05;;;;;;;;;;5030383;28;20434;-74
2022/11/28 07:55:34;;;;;;;31.67;19.40;;;;;;;;;;5026998;28;20467;-74
2022/11/28 07:58:00;;;;;;;30.40;18.88;;;;;;;;;;5033299;28;20785;-74
2022/11/28 08:00:26;;;;;;;31.10;19.20;;;;;;;;;;5026780;28;20946;-74
2022/11/28 08:02:52;;;;;;;32.03;19.48;;;;;;;;;;5022441;28;20799;-75
2022/11/28 08:05:18;;;;;;;31.05;19.20;;;;;;;;;;5032607;28;20474;-75
2022/11/28 08:07:46;;;;;;;30.83;19.00;;;;;;;;;;5030055;28;20431;-75
2022/11/28 08:10:12;;;;;;;30.33;19.13;;;;;;;;;;5026566;28;20426;-75
2022/11/28 08:12:38;;;;;;;31.45;19.70;;;;;;;;;;5013472;28;20414;-75
2022/11/28 08:15:04;;;;;;;27.58;18.83;;;;;;;;;;5030724;28;20426;-75
2022/11/28 08:17:30;;;;;;;31.15;19.23;;;;;;;;;;5021315;28;20756;-75
2022/11/28 08:19:57;;;;;;;29.45;18.20;;;;;;;;;;5051466;28;20469;-75
2022/11/28 08:22:23;;;;;;;27.30;17.80;;;;;;;;;;5015608;28;20507;-74
2022/11/28 08:24:49;;;;;;;30.77;18.40;;;;;;;;;;5031022;28;20427;-74
2022/11/28 08:27:15;;;;;;;31.73;19.45;;;;;;;;;;5026023;28;20917;-75
2022/11/28 08:29:41;;;;;;;31.00;18.30;;;;;;;;;;5029345;28;20471;-75
2022/11/28 08:32:07;;;;;;;25.90;16.73;;;;;;;;;;5030401;28;20425;-75
2022/11/28 08:34:33;;;;;;;26.90;16.98;;;;;;;;;;5049156;28;20424;-75
2022/11/28 08:36:59;;;;;;;26.50;17.80;;;;;;;;;;5026461;28;20439;-75
2022/11/28 08:39:25;;;;;;;28.90;17.13;;;;;;;;;;5032006;28;20448;-75
2022/11/28 08:41:55;;;;;;;76.10;20.45;;;;;;;;;;5050894;28;20507;-75
2022/11/28 08:44:22;;;;;;;31.58;16.85;;;;;;;;;;5047752;28;20427;-75
2022/11/28 08:46:48;;;;;;;25.15;16.35;;;;;;;;;;5047139;28;20507;-75
2022/11/28 08:49:14;;;;;;;26.60;16.67;;;;;;;;;;5044106;28;20415;-75
2022/11/28 08:51:41;;;;;;;65.07;19.23;;;;;;;;;;5038653;28;20422;-75
2022/11/28 08:54:07;;;;;;;34.53;17.15;;;;;;;;;;5050137;28;20924;-75
2022/11/28 08:56:33;;;;;;;24.10;15.02;;;;;;;;;;5047786;28;20468;-75
2022/11/28 08:59:00;;;;;;;26.88;16.08;;;;;;;;;;5051932;28;20777;-75
2022/11/28 09:01:26;;;;;;;30.73;16.63;;;;;;;;;;5051135;28;20429;-75
2022/11/28 09:03:53;;;;;;;49.00;16.30;;;;;;;;;;5043427;28;20924;-76
2022/11/28 09:06:20;;;;;;;23.83;14.23;;;;;;;;;;5044471;28;20433;-75
2022/11/28 09:08:47;;;;;;;23.15;14.48;;;;;;;;;;5022998;28;20418;-75
2022/11/28 09:11:14;;;;;;;20.55;13.55;;;;;;;;;;5043973;28;20417;-75
2022/11/28 09:13:41;;;;;;;20.67;13.93;;;;;;;;;;5050535;28;20421;-74
2022/11/28 09:16:07;;;;;;;22.67;14.23;;;;;;;;;;5050272;28;20849;-75
2022/11/28 09:18:33;;;;;;;21.65;13.70;;;;;;;;;;5028847;28;20436;-75
2022/11/28 09:21:01;;;;;;;21.33;14.02;;;;;;;;;;5033406;28;20432;-76
2022/11/28 09:23:28;;;;;;;24.10;14.55;;;;;;;;;;5051084;28;20428;-75
2022/11/28 09:25:54;;;;;;;22.90;14.18;;;;;;;;;;5044743;28;20420;-76
2022/11/28 09:28:20;;;;;;;23.20;14.70;;;;;;;;;;5047418;28;20434;-75
2022/11/28 09:30:46;;;;;;;23.77;14.43;;;;;;;;;;5053841;28;20424;-76
2022/11/28 09:33:12;;;;;;;24.48;15.68;;;;;;;;;;5047923;28;20451;-75
2022/11/28 09:35:39;;;;;;;22.63;14.68;;;;;;;;;;5048991;28;20489;-75
2022/11/28 09:38:05;;;;;;;24.20;15.70;;;;;;;;;;5050585;28;20914;-75
2022/11/28 09:40:37;;;;;;;23.17;14.27;;;;;;;;;;5047804;28;20441;-75
2022/11/28 09:43:04;;;;;;;23.08;15.07;;;;;;;;;;5039778;28;20833;-76
2022/11/28 09:45:32;;;;;;;23.25;14.88;;;;;;;;;;5049424;28;20526;-76
2022/11/28 09:48:02;;;;;;;23.83;15.18;;;;;;;;;;5045818;28;20458;-76
2022/11/28 09:50:34;;;;;;;24.05;14.90;;;8.30;99.90;;;;;;5046036;28;21011;-75
2022/11/28 09:53:13;;;;;;;23.20;15.45;;;;;;;;;;5047265;28;20923;-75
2022/11/28 09:55:47;;;;;;;71.07;19.83;;;;;;;;;;5048595;28;21451;-76
2022/11/28 09:58:16;;;;;;;24.30;15.07;;;;;;;;;;5034533;28;20455;-75
2022/11/28 10:00:47;;;;;;;22.77;14.52;;;;;;;;;;5059707;28;20420;-75
2022/11/28 10:03:16;;;;;;;23.73;14.85;;;;;;;;;;5035830;28;20424;-74
2022/11/28 10:05:50;;;;;;;25.50;14.40;;;;;;;;;;5049935;28;20854;-75
2022/11/28 10:08:22;;;;;;;23.90;14.57;;;;;;;;;;5052137;28;20427;-74
2022/11/28 10:11:19;;;;;;;27.60;14.93;;;;;;;;;;5035826;28;20419;-75
2022/11/28 10:14:04;;;;;;;24.08;14.48;;;;;;;;;;5029008;28;20434;-75
2022/11/28 10:16:49;;;;;;;24.40;14.65;;;;;;;;;;5051403;28;20426;-75
2022/11/28 10:19:17;;;;;;;23.52;14.60;;;;;;;;;;5045659;28;20427;-75
2022/11/28 10:21:46;;;;;;;21.85;13.77;;;;;;;;;;5038412;28;20419;-74
2022/11/28 10:24:12;;;;;;;131.10;21.67;;;;;;;;;;5044556;28;20444;-76
2022/11/28 10:26:42;;;;;;;21.90;14.33;;;;;;;;;;5050939;28;20932;-78
2022/11/28 10:29:25;;;;;;;21.60;13.83;;;;;;;;;;5025953;28;20447;-76
2022/11/28 10:31:54;;;;;;;22.67;13.50;;;;;;;;;;5046622;28;20476;-76
2022/11/28 10:34:30;;;;;;;34.03;15.10;;;;;;;;;;5031975;28;20491;-77
2022/11/28 10:37:18;;;;;;;22.00;13.20;;;8.50;99.90;;;;;;5048067;28;20451;-76
2022/11/28 10:39:48;;;;;;;20.63;13.60;;;;;;;;;;5048508;28;21021;-76
2022/11/28 10:42:29;;;;;;;21.17;13.63;;;;;;;;;;5055729;28;21883;-77
2022/11/28 10:45:10;;;;;;;21.30;14.13;;;;;;;;;;5049357;28;20534;-76
2022/11/28 10:47:40;;;;;;;20.77;13.60;;;;;;;;;;5053916;28;20420;-76
2022/11/28 10:50:07;;;;;;;57.97;17.15;;;;;;;;;;5035818;28;20461;-76
2022/11/28 10:53:00;;;;;;;17.90;12.02;;;;;;;;;;5055166;28;20426;-76
2022/11/28 10:55:35;;;;;;;20.27;12.80;;;;;;;;;;5033323;28;20431;-76
2022/11/28 10:58:11;;;;;;;20.20;12.50;;;;;;;;;;5054033;28;20915;-76
2022/11/28 11:00:37;;;;;;;21.13;13.02;;;;;;;;;;5047271;28;20484;-76
2022/11/28 11:03:05;;;;;;;44.38;16.80;;;;;;;;;;5010799;28;20424;-76
2022/11/28 11:05:32;;;;;;;17.35;11.88;;;;;;;;;;5038514;28;20479;-76
2022/11/28 11:08:17;;;;;;;19.90;13.00;;;;;;;;;;5052405;28;20437;-77
2022/11/28 11:10:43;;;;;;;19.50;12.10;;;;;;;;;;5045026;28;20419;-77
2022/11/28 11:13:21;;;;;;;18.25;12.07;;;;;;;;;;5031421;28;20935;-76
2022/11/28 11:15:49;;;;;;;19.27;12.07;;;;;;;;;;5047499;28;20431;-77
2022/11/28 11:18:41;;;;;;;28.77;12.73;;;;;;;;;;5049938;28;20412;-76
2022/11/28 11:21:07;;;;;;;19.63;12.50;;;;;;;;;;5010394;28;20508;-76
2022/11/28 11:23:33;;;;;;;20.45;12.38;;;;;;;;;;5028817;28;20927;-76
2022/11/28 11:25:59;;;;;;;18.00;12.20;;;;;;;;;;5033228;28;20455;-76
2022/11/28 11:28:29;;;;;;;17.70;11.70;;;;;;;;;;5042321;28;20427;-77
2022/11/28 11:30:59;;;;;;;18.80;12.43;;;;;;;;;;5033766;28;20405;-77
2022/11/28 11:33:29;;;;;;;18.70;11.70;;;;;;;;;;5033890;28;20393;-77
2022/11/28 11:35:55;;;;;;;17.75;11.65;;;;;;;;;;5050740;28;20426;-77
2022/11/28 11:38:22;;;;;;;16.23;11.47;;;;;;;;;;5054922;28;20421;-77
2022/11/28 11:40:51;;;;;;;19.40;12.30;;;;;;;;;;5056948;28;20514;-78
2022/11/28 11:43:31;;;;;;;44.80;12.67;;;;;;;;;;5057783;28;20575;-77
2022/11/28 11:46:04;;;;;;;16.65;11.55;;;;;;;;;;5057651;28;20419;-77
2022/11/28 11:48:37;;;;;;;16.02;11.20;;;;;;;;;;5057212;28;20510;-78
2022/11/28 11:51:03;;;;;;;18.70;11.07;;;;;;;;;;5055575;28;20494;-78
2022/11/28 11:53:30;;;;;;;16.10;11.50;;;;;;;;;;5040224;28;20430;-77
2022/11/28 11:55:58;;;;;;;14.95;10.48;;;;;;;;;;5040634;28;20775;-77
2022/11/28 11:58:45;;;;;;;17.02;11.50;;;;;;;;;;5057754;28;20412;-77
2022/11/28 12:01:13;;;;;;;16.75;11.02;;;;;;;;;;5039908;28;20771;-77
2022/11/28 12:03:47;;;;;;;16.55;10.93;;;9.30;99.90;;;;;;5057343;28;20920;-77
2022/11/28 12:06:15;;;;;;;16.45;10.23;;;;;;;;;;5037816;28;20506;-78
2022/11/28 12:08:59;;;;;;;15.90;11.10;;;;;;;;;;5047614;28;20485;-78
2022/11/28 12:11:28;;;;;;;16.48;11.40;;;;;;;;;;5037412;28;20908;-78
2022/11/28 12:13:56;;;;;;;14.18;9.95;;;;;;;;;;5037355;28;20401;-78
2022/11/28 12:16:34;;;;;;;14.27;9.77;;;;;;;;;;5021036;28;20405;-78
2022/11/28 12:19:03;;;;;;;15.20;9.90;;;;;;;;;;5024896;28;20430;-78
2022/11/28 12:21:41;;;;;;;56.85;13.85;;;;;;;;;;5037109;28;20416;-78
2022/11/28 12:24:07;;;;;;;12.60;9.27;;;;;;;;;;5039282;28;20425;-78
2022/11/28 12:26:41;;;;;;;13.93;9.40;;;;;;;;;;5037152;28;20428;-79
2022/11/28 12:29:20;;;;;;;12.60;9.00;;;;;;;;;;5043930;28;20423;-78
2022/11/28 12:32:01;;;;;;;14.52;10.70;;;;;;;;;;5059731;28;20445;-81
2022/11/28 12:34:33;;;;;;;13.07;9.27;;;;;;;;;;5052542;28;20425;-79
2022/11/28 12:37:06;;;;;;;13.45;9.25;;;;;;;;;;5036491;28;20471;-78
2022/11/28 12:39:56;;;;;;;14.65;9.88;;;;;;;;;;5054074;28;20404;-79
2022/11/28 12:42:51;;;;;;;30.20;11.50;;;9.40;99.90;;;;;;5055775;28;20457;-78
2022/11/28 12:45:33;;;;;;;15.30;9.80;;;;;;;;;;5058480;28;20440;-78
2022/11/28 12:48:28;;;;;;;15.10;9.98;;;;;;;;;;5052492;28;20917;-78
2022/11/28 12:51:26;;;;;;;16.83;10.38;;;8.70;99.90;;;;;;5013595;28;20738;-77
2022/11/28 12:53:55;;;;;;;15.15;10.60;;;;;;;;;;5011360;28;20408;-78
2022/11/28 12:56:21;;;;;;;15.73;10.38;;;;;;;;;;5053149;28;20420;-78
2022/11/28 12:59:00;;;;;;;59.08;14.23;;;;;;;;;;5036476;28;20405;-77
2022/11/28 13:01:49;;;;;;;17.58;11.48;;;;;;;;;;5051098;28;21349;-79
2022/11/28 13:04:15;;;;;;;20.48;12.02;;;;;;;;;;5034663;28;20420;-78
2022/11/28 13:06:59;;;;;;;18.98;12.38;;;;;;;;;;5052840;28;20421;-79
2022/11/28 13:09:49;;;;;;;20.88;12.68;;;;;;;;;;5048951;28;20413;-79
2022/11/28 13:12:15;;;;;;;20.60;12.32;;;;;;;;;;5031398;28;20958;-79
2022/11/28 13:14:58;;;;;;;22.25;12.88;;;;;;;;;;5030800;28;20426;-79
2022/11/28 13:17:34;;;;;;;49.72;16.00;;;;;;;;;;5043327;28;20429;-79
2022/11/28 13:20:12;;;;;;;20.25;12.93;;;;;;;;;;5035333;28;20431;-79
2022/11/28 13:22:56;;;;;;;19.98;12.57;;;;;;;;;;5019443;28;20425;-79
2022/11/28 13:25:26;;;;;;;21.27;12.73;;;;;;;;;;5025681;28;20443;-79
2022/11/28 13:28:01;;;;;;;21.40;13.55;;;;;;;;;;5047490;28;20417;-79
2022/11/28 13:30:29;;;;;;;21.58;13.20;;;;;;;;;;5015852;28;20469;-78
2022/11/28 13:32:55;;;;;;;23.50;13.97;;;;;;;;;;5036175;28;20767;-75
2022/11/28 13:35:22;;;;;;;23.10;13.65;;;;;;;;;;5052213;28;20411;-78
2022/11/28 13:37:51;;;;;;;22.48;13.48;;;;;;;;;;5032020;28;20475;-79
2022/11/28 13:40:20;;;;;;;23.98;13.65;;;;;;;;;;5048959;28;20502;-79
2022/11/28 13:42:49;;;;;;;21.23;13.10;;;;;;;;;;5030585;28;20432;-76
2022/11/28 13:45:20;;;;;;;20.77;12.30;;;;;;;;;;5040151;28;20432;-77
2022/11/28 13:47:46;;;;;;;22.83;12.75;;;;;;;;;;5049915;28;20467;-77
2022/11/28 13:50:21;;;;;;;23.85;13.07;;;;;;;;;;5035221;28;20420;-78
2022/11/28 13:52:58;;;;;;;73.88;18.45;;;;;;;;;;5042551;28;20421;-77
2022/11/28 13:55:45;;;;;;;22.27;13.55;;;;;;;;;;5051667;28;20429;-77
2022/11/28 13:58:14;;;;;;;23.20;13.40;;;;;;;;;;5041931;28;20803;-78
2022/11/28 14:00:40;;;;;;;25.98;14.95;;;;;;;;;;5033039;28;20504;-77
2022/11/28 14:03:17;;;;;;;24.55;14.50;;;;;;;;;;5050820;28;20425;-78
2022/11/28 14:05:43;;;;;;;27.38;14.98;;;;;;;;;;5049861;28;20438;-78
2022/11/28 14:08:25;;;;;;;30.27;14.85;;;;;;;;;;5040405;28;20425;-77
2022/11/28 14:10:57;;;;;;;31.10;16.67;;;;;;;;;;5049841;28;20428;-77
2022/11/28 14:13:40;;;;;;;27.73;14.80;;;;;;;;;;5044851;28;20437;-78
2022/11/28 14:16:11;;;;;;;26.55;15.90;;;;;;;;;;5029711;28;20835;-78
2022/11/28 14:18:46;;;;;;;29.65;15.30;;;;;;;;;;5044282;28;20516;-78
2022/11/28 14:21:27;;;;;;;32.35;15.65;;;;;;;;;;5046540;28;20532;-77
2022/11/28 14:24:16;;;;;;;29.95;15.50;;;;;;;;;;5029991;28;20494;-78
2022/11/28 14:26:43;;;;;;;28.45;15.55;;;;;;;;;;5046455;28;20418;-78
2022/11/28 14:29:20;;;;;;;35.28;16.95;;;;;;;;;;5019915;28;20826;-78
2022/11/28 14:31:47;;;;;;;44.72;17.98;;;;;;;;;;5011552;28;20401;-78
2022/11/28 14:34:49;;;;;;;35.63;16.80;;;;;;;;;;5010461;28;20419;-78